Aviation Digital Data Service (ADDS)

Output produced by METARs form (1839 UTC 18 June 2019)
found at http://www.aviationweather.gov/metar/data/
 
KAXA 181835Z AUTO VRB06KT 10SM FEW030 SCT065 21/16 A2996 RMK A01
KAMW 181829Z AUTO 03005KT 10SM FEW020 BKN037 OVC046 21/17 A2996 RMK AO2 RAB13E24 P0000 T02060167 $
KIKV 181835Z AUTO 00000KT 10SM SCT042 SCT055 BKN080 23/18 A2995 RMK AO2
KAIO 181835Z AUTO 00000KT 10SM FEW021 SCT041 SCT070 23/19 A2992 RMK AO2
KADU 181835Z AUTO 00000KT 10SM OVC008 20/18 A2996 RMK AO2
KBRL 181753Z AUTO 11006KT 10SM SCT026 24/17 A2994 RMK AO2 SLP136 T02440167 10244 20167 58006
KBRL 181740Z 1818/1918 00000KT P6SM SCT140 
     FM182000 00000KT P6SM BKN130 
     FM190600 00000KT P6SM VCTS BKN070CB 
     FM191100 00000KT P6SM VCTS OVC050CB 
     FM191200 00000KT 5SM SHRA VCTS OVC050CB
       
KCIN 181835Z AUTO 03007KT 1 1/4SM RA BKN005 18/17 A2996 RMK AO2
KCID 181752Z VRB05KT 10SM FEW050 BKN080 OVC095 22/18 A2995 RMK AO2 SLP139 T02220178 10222 20161 58006
KCID 181740Z 1818/1918 00000KT P6SM VCSH BKN070 
     FM190800 VRB03KT P6SM VCTS OVC045CB 
     FM191200 VRB03KT P6SM OVC060 
     FM191500 08005KT P6SM BKN060 
     FM191600 08005KT P6SM BKN050
       
KTVK 181815Z AUTO 00000KT 10SM CLR 25/17 A2996 RMK AO2
KCNC 181835Z AUTO 08006KT 10SM SCT043 27/16 A2993 RMK AO2
KCCY 181835Z AUTO 00000KT 10SM OVC032 19/15 A2996 RMK AO2
KCKP 181835Z AUTO 04003KT 10SM BKN120 20/15 A2998 RMK AO2 T02000152
KICL 181835Z AUTO 03010KT 10SM SCT031 BKN038 BKN080 26/20 A2992 RMK AO2
KCAV 181835Z AUTO 03005KT 10SM BKN024 BKN033 OVC039 21/16 A2997 RMK AO2 PWINO
KCWI 181756Z AUTO VRB04KT 10SM BKN028 27/17 A2996 RMK AO2 SLP161 T02720172 10289 20144 58006
KCBF 181835Z AUTO 03012KT 8SM BKN080 21/21 A2992 RMK AO2
KCSQ 181835Z AUTO 06006KT 10SM OVC075 23/14 A2994 RMK AO2
KDVN 181752Z AUTO VRB03KT 10SM FEW029 24/17 A2997 RMK AO2 SLP142 T02390167 10244 20161 58006
KDEH 181835Z AUTO 00000KT 10SM BKN027 OVC040 19/17 A2995 RMK AO2
KDNS 181835Z AUTO 05008KT 10SM FEW009 SCT014 SCT036 19/18 A2998 RMK AO2
KDSM 181754Z 28003KT 10SM FEW030 BKN080 OVC100 24/16 A2994 RMK AO2 SLP132 60000 T02390161 10250 20189 58005
KDSM 181729Z 1818/1918 VRB04KT P6SM VCSH SCT025 BKN100 
     FM182300 36004KT P6SM VCTS SCT040CB OVC080 
     FM190300 VRB03KT P6SM -SHRA OVC035 
     FM190600 VRB03KT P6SM VCSH OVC050 
     FM191000 VRB03KT P6SM VCSH OVC030 
     FM191200 04004KT 6SM BR VCSH OVC025
       
KDBQ 181753Z 19005KT 10SM BKN026 BKN035 22/16 A2996 RMK AO2 SLP144 T02170161 10233 20150 56005
KDBQ 181835Z 1819/1918 19005KT P6SM VCSH BKN026 BKN035 
     FM190000 VRB03KT P6SM VCTS BKN080CB 
     FM190500 00000KT P6SM VCTS OVC060CB 
     FM191200 VRB03KT P6SM OVC070 
     FM191700 09005KT P6SM BKN040
       
KEST 181752Z AUTO 05007KT 10SM SCT041 21/12 A2998 RMK AO2 SLP148 T02060122 10211 20156 56009
KFFL 181835Z AUTO 36005KT 10SM CLR 25/16 A2993 RMK AO2 PWINO
KFXY 181835Z AUTO 00000KT 10SM SCT028 SCT035 BKN070 21/13 A2997 RMK AO2
KFOD 181756Z AUTO 05003KT 10SM OVC025 18/16 A2999 RMK AO2 SLP177 60006 T01830161 10183 20156 57006
KFOD 181729Z 1818/1918 04004KT P6SM VCSH SCT011 OVC025 
     FM182000 02004KT P6SM SCT030 OVC060 
     FM190000 01004KT P6SM BKN110 
     FM191200 04004KT P6SM SCT070
       
KFSW 181835Z AUTO 00000KT 10SM BKN030 24/18 A2995 RMK AO2
KGGI 181835Z AUTO 00000KT 10SM BKN033 BKN039 OVC075 24/16 A2996 RMK AO2 T02370159
KHPT 181835Z AUTO 00000KT 10SM BKN017 BKN025 20/17 A2996 RMK AO2
KHNR 181835Z AUTO 02008G14KT 10SM BKN010 20/19 A2995 RMK AO2
KIIB 181835Z AUTO 27004KT 10SM BKN075 22/17 A2995 RMK AO2 T02220168
KIOW 181752Z AUTO 30006KT 10SM BKN030 BKN075 OVC100 24/17 A2996 RMK AO2 SLP140 T02440172 10256 20156 58009 $
KIFA 181835Z AUTO 00000KT 10SM -DZ SCT007 BKN022 OVC029 20/18 A2997 RMK AO2 T02020179
KEOK 181835Z AUTO 00000KT 9SM CLR 25/17 A2993 RMK AO2
KOXV 181835Z AUTO VRB03KT 10SM BKN042 BKN095 25/15 A2994 RMK AO2
KLRJ 181835Z AUTO 00000KT 10SM FEW033 FEW120 22/14 A2998 RMK AO2
KMIW 181753Z AUTO 33003KT 10SM OVC070 20/17 A2996 RMK AO2 RAE16 SLP140 P0000 60001 T02000167 10200 20178 56004
KMCW 181753Z AUTO VRB04KT 10SM CLR 21/17 A2999 RMK AO2 SLP145 60010 T02060172 10206 20156 58007
KMCW 181729Z 1818/1918 34007KT P6SM BKN070 BKN110 
     FM182300 32005KT P6SM BKN110 
     FM190200 VRB03KT P6SM OVC130 
     FM191000 VRB03KT P6SM SCT140 
     FM191700 05005KT P6SM BKN070
       
KMXO 181835Z AUTO 31003KT 10SM SCT080 23/18 A2994 RMK AO2
KMPZ 181815Z AUTO 00000KT 10SM CLR 27/16 A2994 RMK AO2
KMUT 181835Z AUTO 00000KT 10SM SCT034 OVC095 25/17 A2994 RMK AO2
KTNU 181835Z AUTO 00000KT 10SM SCT039 BKN044 OVC080 24/16 A2995 RMK AO2
KOLZ 181835Z AUTO 23007KT 10SM FEW030 BKN055 BKN070 20/19 A2996 RMK AO2 PWINO
KI75 181835Z AUTO 09004KT 10SM SCT042 SCT120 26/14 A2994 RMK AO2 T02610142
KOOA 181835Z AUTO 10003KT 10SM OVC110 25/16 A2995 RMK AO2 T02490156
KOTM 181753Z AUTO 00000KT 10SM SCT032 26/17 A2994 RMK AO2 SLP134 T02560167 10256 20161 58009
KOTM 181729Z 1818/1918 16003KT P6SM SCT006 BKN100 
     FM182300 02004KT P6SM BKN150 
     FM190500 02004KT P6SM VCTS BKN040CB 
     FM191200 04004KT 6SM BR VCTS OVC025CB 
     FM191400 05005KT 5SM -TSRA OVC015CB 
     FM191600 05005KT P6SM OVC025
       
KPEA 181835Z AUTO 00000KT 10SM SCT035 26/15 A2995 RMK AO2 T02550154
KPRO 181835Z AUTO 00000KT 10SM BKN007 BKN043 OVC070 22/21 A2995 RMK AO2 T02190206
KRDK 181835Z AUTO 02006KT 10SM BKN022 BKN037 BKN049 24/20 A2992 RMK AO2
KSHL 181835Z AUTO 00000KT 10SM CLR 22/09 A2996 RMK AO2
KSDA 181835Z AUTO 04006KT 10SM SCT065 BKN095 24/20 A2990 RMK AO2
KSUX 181752Z 04006KT 10SM OVC100 19/15 A2999 RMK AO2 SLP151 60083 T01940150 10194 20156 58005
KSUX 181720Z 1818/1918 05008KT P6SM SCT060 OVC100 
     FM182300 07005KT P6SM BKN200 
     FM190800 VRB03KT P6SM FEW030 SCT200 
     FM191300 06005KT P6SM BKN200
       
KSPW 181753Z AUTO 10SM CLR 23/11 A2999 RMK AO2 SLP148 T02330111 10233 20167 58006
KSLB 181835Z AUTO 07006KT 10SM CLR 18/16 A2996 RMK AO2
KVTI 181835Z AUTO 00000KT 7SM CLR 22/18 A2996 RMK AO2 T02160180
KAWG 181835Z AUTO 01005KT 10SM FEW033 25/20 A2995 RMK AO2
KALO 181754Z 22005KT 10SM BKN015 BKN024 OVC036 22/18 A2995 RMK AO2 SLP138 60046 T02170183 10217 20183
KALO 181809Z 1818/1918 VRB05KT P6SM VCSH BKN015 BKN025 
     FM182100 29005KT 6SM BR VCSH SCT025 BKN050 
     FM182300 30004KT P6SM BKN090 
     FM191200 VRB03KT 5SM BR BKN050 
     FM191700 05005KT P6SM BKN060
       
KEBS 181815Z AUTO 02006KT 9SM BKN011 20/18 A2995 RMK AO2